Fishing Creek, Maryland
Current Conditions -  °F | °C
As of 6:52 PM on Sunday 21 Dec 2014 (Local Time) from KNHK Reporting Station
Clear Clear  
Wind Chill: -2°   Ceiling: Unl
Heat Index: -2°   Visibility: 9mi
Dew Point: -5°   Wind: 0mph
Humidity: 81%   Direction: NA
Pressure: 30.33"   Gusts: NA
Location:  38.31°N, 76.23°W
Report Text: KNHK 212352Z AUTO 00000KT 9SM CLR M02/M05 A3033 RMK AO2 SLP270 T10221050 10061 21022 51016
Loading
Personal Weather Stations






























Interactive Weather Map New forecast layout! Learn more

10-Day Weather Forecast

Advertisements
Track Severe Weather on mobile